createdAt,value
2019-05-25T00:01:42.055Z,14.94
2019-05-25T00:04:10.699Z,14.98
2019-05-25T00:06:39.359Z,14.95
2019-05-25T00:09:08.077Z,14.93
2019-05-25T00:11:36.715Z,14.87
2019-05-25T00:14:05.362Z,14.90
2019-05-25T00:16:34.294Z,14.80
2019-05-25T00:19:03.015Z,14.70
2019-05-25T00:21:31.789Z,14.62
2019-05-25T00:24:11.833Z,14.58
2019-05-25T00:26:31.298Z,14.56
2019-05-25T00:29:00.023Z,14.53
2019-05-25T00:31:28.740Z,14.53
2019-05-25T00:33:57.472Z,14.54
2019-05-25T00:36:26.292Z,14.54
2019-05-25T00:38:56.003Z,14.51
2019-05-25T00:41:24.662Z,14.51
2019-05-25T00:43:53.661Z,14.47
2019-05-25T00:46:22.671Z,14.57
2019-05-25T00:48:51.327Z,14.66
2019-05-25T00:51:19.959Z,14.69
2019-05-25T00:53:48.667Z,14.70
2019-05-25T00:56:17.319Z,14.61
2019-05-25T00:58:45.962Z,14.48
2019-05-25T01:01:14.691Z,14.40
2019-05-25T01:03:43.327Z,14.35
2019-05-25T01:06:12.651Z,14.32
2019-05-25T01:08:41.291Z,14.33
2019-05-25T01:11:10.354Z,14.35
2019-05-25T01:13:38.991Z,14.40
2019-05-25T01:16:07.630Z,14.46
2019-05-25T01:18:37.246Z,14.47
2019-05-25T01:21:06.302Z,14.48
2019-05-25T01:23:34.987Z,14.49
2019-05-25T01:26:03.732Z,14.49
2019-05-25T01:28:32.372Z,14.49
2019-05-25T01:31:01.111Z,14.44
2019-05-25T01:33:29.785Z,14.39
2019-05-25T01:35:58.528Z,14.36
2019-05-25T01:38:27.184Z,14.35
2019-05-25T01:40:55.889Z,14.39
2019-05-25T01:43:24.887Z,14.49
2019-05-25T01:45:53.527Z,14.52
2019-05-25T01:48:22.255Z,14.53
2019-05-25T01:50:50.954Z,14.51
2019-05-25T01:53:19.707Z,14.45
2019-05-25T01:55:48.447Z,14.42
2019-05-25T01:58:17.507Z,14.38
2019-05-25T02:00:46.212Z,14.32
2019-05-25T02:03:14.891Z,14.29
2019-05-25T02:05:43.668Z,14.26
2019-05-25T02:08:12.415Z,14.23
2019-05-25T02:10:41.156Z,14.17
2019-05-25T02:13:10.232Z,14.15
2019-05-25T02:15:38.919Z,14.11
2019-05-25T02:18:07.655Z,14.07
2019-05-25T02:20:36.358Z,14.04
2019-05-25T02:23:05.016Z,14.09
2019-05-25T02:25:33.662Z,14.10
2019-05-25T02:28:02.562Z,14.10
2019-05-25T02:30:31.233Z,14.10
2019-05-25T02:32:59.990Z,14.15
2019-05-25T02:35:28.763Z,14.17
2019-05-25T02:37:57.494Z,14.20
2019-05-25T02:40:26.232Z,14.17
2019-05-25T02:42:55.032Z,14.11
2019-05-25T02:45:23.691Z,14.03
2019-05-25T02:47:52.452Z,13.94
2019-05-25T02:50:22.628Z,13.83
2019-05-25T02:52:51.311Z,13.75
2019-05-25T02:55:33.196Z,13.72
2019-05-25T02:57:50.423Z,13.75
2019-05-25T03:00:21.377Z,13.69
2019-05-25T03:02:50.024Z,13.65
2019-05-25T03:05:19.624Z,13.54
2019-05-25T03:07:48.387Z,13.48
2019-05-25T03:10:17.337Z,13.43
2019-05-25T03:12:45.997Z,13.38
2019-05-25T03:15:14.727Z,13.37
2019-05-25T03:17:43.464Z,13.35
2019-05-25T03:20:12.175Z,13.30
2019-05-25T03:22:40.858Z,13.25
2019-05-25T03:25:09.551Z,13.26
2019-05-25T03:27:38.199Z,13.24
2019-05-25T03:30:07.431Z,13.19
2019-05-25T03:32:36.188Z,13.14
2019-05-25T03:35:05.479Z,13.16
2019-05-25T03:37:34.219Z,13.20
2019-05-25T03:40:02.895Z,13.23
2019-05-25T03:42:31.541Z,13.19
2019-05-25T03:45:00.206Z,13.11
2019-05-25T03:47:28.843Z,13.10
2019-05-25T03:49:57.500Z,13.11
2019-05-25T03:52:27.404Z,13.09
2019-05-25T03:54:56.043Z,13.09
2019-05-25T03:57:25.080Z,13.15
2019-05-25T03:59:53.764Z,13.17
2019-05-25T04:02:22.770Z,13.23
2019-05-25T04:04:51.418Z,13.29
2019-05-25T04:07:20.079Z,13.32
2019-05-25T04:09:48.773Z,13.31
2019-05-25T04:12:17.507Z,13.32
2019-05-25T04:14:46.179Z,13.29
2019-05-25T04:17:14.974Z,13.31
2019-05-25T04:19:43.623Z,13.45
2019-05-25T04:22:12.347Z,13.46
2019-05-25T04:24:41.011Z,13.47
2019-05-25T04:27:10.463Z,13.49
2019-05-25T04:29:39.236Z,13.55
2019-05-25T04:32:07.980Z,13.54
2019-05-25T04:34:37.076Z,13.50
2019-05-25T04:37:05.783Z,13.46
2019-05-25T04:39:34.458Z,13.46
2019-05-25T04:42:03.099Z,13.48
2019-05-25T04:44:31.885Z,13.52
2019-05-25T04:47:00.892Z,13.54
2019-05-25T04:49:29.570Z,13.70
2019-05-25T04:51:58.238Z,13.81
2019-05-25T04:54:27.159Z,13.96
2019-05-25T04:56:55.905Z,13.97
2019-05-25T04:59:24.600Z,13.95
2019-05-25T05:01:53.315Z,13.97
2019-05-25T05:04:21.968Z,13.95
2019-05-25T05:06:50.725Z,13.95
2019-05-25T05:09:19.370Z,14.03
2019-05-25T05:11:48.204Z,14.26
2019-05-25T05:14:16.935Z,14.49
2019-05-25T05:16:45.560Z,14.46
2019-05-25T05:19:14.207Z,14.59
2019-05-25T05:21:43.020Z,14.75
2019-05-25T05:24:11.663Z,15.01
2019-05-25T05:26:54.598Z,15.14
2019-05-25T05:29:12.272Z,15.32
2019-05-25T05:31:41.879Z,15.43
2019-05-25T05:34:10.542Z,15.62
2019-05-25T05:36:39.321Z,15.81
2019-05-25T05:39:08.328Z,15.92
2019-05-25T05:41:38.367Z,15.90
2019-05-25T05:44:07.115Z,16.02
2019-05-25T05:46:36.977Z,16.00
2019-05-25T05:49:05.646Z,16.23
2019-05-25T05:51:35.575Z,16.34
2019-05-25T05:54:04.990Z,16.63
2019-05-25T05:56:33.652Z,16.77
2019-05-25T05:59:02.436Z,16.92
2019-05-25T06:01:31.085Z,16.54
2019-05-25T06:03:59.833Z,16.31
2019-05-25T06:06:28.496Z,16.55
2019-05-25T06:08:57.144Z,16.89
2019-05-25T06:11:26.107Z,16.95
2019-05-25T06:13:54.820Z,16.91
2019-05-25T06:16:23.506Z,16.75
2019-05-25T06:18:52.509Z,16.68
2019-05-25T06:21:21.187Z,16.88
2019-05-25T06:23:49.979Z,17.28
2019-05-25T06:26:18.759Z,17.76
2019-05-25T06:28:47.514Z,18.25
2019-05-25T06:31:16.604Z,18.83
2019-05-25T06:33:45.611Z,18.80
2019-05-25T06:36:14.352Z,19.24
2019-05-25T06:38:43.087Z,19.91
2019-05-25T06:41:12.814Z,20.64
2019-05-25T06:43:41.471Z,20.80
2019-05-25T06:46:10.185Z,20.95
2019-05-25T06:48:39.131Z,20.86
2019-05-25T06:51:07.857Z,20.82
2019-05-25T06:53:36.532Z,20.66
2019-05-25T06:56:05.221Z,19.82
2019-05-25T06:58:34.939Z,19.76
2019-05-25T07:01:03.677Z,20.22
2019-05-25T07:03:32.352Z,20.55
2019-05-25T07:06:01.008Z,21.30
2019-05-25T07:08:29.786Z,21.71
2019-05-25T07:10:58.516Z,22.23
2019-05-25T07:13:28.637Z,22.24
2019-05-25T07:15:58.522Z,22.16
2019-05-25T07:18:27.468Z,21.94
2019-05-25T07:20:56.266Z,21.61
2019-05-25T07:23:24.939Z,21.50
2019-05-25T07:25:53.614Z,21.10
2019-05-25T07:28:22.919Z,21.79
2019-05-25T07:30:51.920Z,22.06
2019-05-25T07:33:20.567Z,22.38
2019-05-25T07:35:49.207Z,22.75
2019-05-25T07:38:17.835Z,22.90
2019-05-25T07:40:46.467Z,23.13
2019-05-25T07:43:15.123Z,23.37
2019-05-25T07:45:43.764Z,23.43
2019-05-25T07:48:12.411Z,23.66
2019-05-25T07:50:41.064Z,23.67
2019-05-25T07:53:09.804Z,23.65
2019-05-25T07:55:38.471Z,23.03
2019-05-25T07:58:16.463Z,22.95
2019-05-25T08:00:37.501Z,22.64
2019-05-25T08:03:06.163Z,22.43
2019-05-25T08:05:34.887Z,22.87
2019-05-25T08:08:03.992Z,23.29
2019-05-25T08:10:33.040Z,23.48
2019-05-25T08:13:01.677Z,23.77
2019-05-25T08:15:31.662Z,23.71
2019-05-25T08:18:00.658Z,23.77
2019-05-25T08:20:29.312Z,24.14
2019-05-25T08:22:57.966Z,24.63
2019-05-25T08:25:26.603Z,24.54
2019-05-25T08:27:55.462Z,24.95
2019-05-25T08:30:24.121Z,25.35
2019-05-25T08:32:52.780Z,25.49
2019-05-25T08:35:21.417Z,25.16
2019-05-25T08:37:50.346Z,25.52
2019-05-25T08:40:18.988Z,25.77
2019-05-25T08:42:47.633Z,25.61
2019-05-25T08:45:16.306Z,25.10
2019-05-25T08:47:44.956Z,25.03
2019-05-25T08:50:13.625Z,24.83
2019-05-25T08:52:42.336Z,24.78
2019-05-25T08:55:11.061Z,24.53
2019-05-25T08:57:39.699Z,25.03
2019-05-25T09:00:08.675Z,25.42
2019-05-25T09:02:37.328Z,25.60
2019-05-25T09:05:06.637Z,25.40
2019-05-25T09:07:35.591Z,24.77
2019-05-25T09:10:04.730Z,24.78
2019-05-25T09:12:33.434Z,24.88
2019-05-25T09:15:05.697Z,24.63
2019-05-25T09:17:32.447Z,24.67
2019-05-25T09:20:01.079Z,24.89
2019-05-25T09:22:29.910Z,25.40
2019-05-25T09:24:58.836Z,25.72
2019-05-25T09:27:27.470Z,25.64
2019-05-25T09:29:56.150Z,25.75
2019-05-25T09:32:24.876Z,26.55
2019-05-25T09:34:53.892Z,27.17
2019-05-25T09:37:22.526Z,27.49
2019-05-25T09:39:51.172Z,27.15
2019-05-25T09:42:19.915Z,27.25
2019-05-25T09:44:48.641Z,27.89
2019-05-25T09:47:17.559Z,28.53
2019-05-25T09:49:46.197Z,28.02
2019-05-25T09:52:14.844Z,28.26
2019-05-25T09:54:43.594Z,28.16
2019-05-25T09:57:12.233Z,28.06
2019-05-25T09:59:40.868Z,28.44
2019-05-25T10:02:09.787Z,29.11
2019-05-25T10:04:38.723Z,29.58
2019-05-25T10:07:07.369Z,29.90
2019-05-25T10:09:39.902Z,29.27
2019-05-25T10:12:06.671Z,29.11
2019-05-25T10:14:35.311Z,28.19
2019-05-25T10:17:03.975Z,28.77
2019-05-25T10:19:32.602Z,29.31
2019-05-25T10:22:01.639Z,29.18
2019-05-25T10:24:30.292Z,28.99
2019-05-25T10:26:58.932Z,28.54
2019-05-25T10:29:36.730Z,29.41
2019-05-25T10:31:57.918Z,29.82
2019-05-25T10:34:26.543Z,29.80
2019-05-25T10:36:55.232Z,30.15
2019-05-25T10:39:23.856Z,30.61
2019-05-25T10:41:53.828Z,30.02
2019-05-25T10:44:22.491Z,30.24
2019-05-25T10:46:51.126Z,30.72
2019-05-25T10:49:19.761Z,31.08
2019-05-25T10:51:48.403Z,31.62
2019-05-25T10:54:17.050Z,31.85
2019-05-25T10:56:46.345Z,31.35
2019-05-25T10:59:14.996Z,31.92
2019-05-25T11:01:43.636Z,31.98
2019-05-25T11:04:12.281Z,31.99
2019-05-25T11:06:41.998Z,32.32
2019-05-25T11:09:10.621Z,32.34
2019-05-25T11:11:39.243Z,31.74
2019-05-25T11:14:08.045Z,32.89
2019-05-25T11:16:36.681Z,32.89
2019-05-25T11:19:05.354Z,33.58
2019-05-25T11:21:34.023Z,34.09
2019-05-25T11:24:02.658Z,34.12
2019-05-25T11:26:31.285Z,34.58
2019-05-25T11:28:59.928Z,35.07
2019-05-25T11:31:28.613Z,34.82
2019-05-25T11:33:57.371Z,34.72
2019-05-25T11:36:26.045Z,34.91
2019-05-25T11:38:54.749Z,35.54
2019-05-25T11:41:23.387Z,36.29
2019-05-25T11:43:53.133Z,36.31
2019-05-25T11:46:21.769Z,36.61
2019-05-25T11:48:50.412Z,37.35
2019-05-25T11:51:19.056Z,38.62
2019-05-25T11:53:47.700Z,39.36
2019-05-25T11:56:16.329Z,39.45
2019-05-25T11:58:47.329Z,39.08
2019-05-25T12:01:15.355Z,38.04
2019-05-25T12:03:43.996Z,37.78
2019-05-25T12:06:12.636Z,39.32
2019-05-25T12:08:41.267Z,40.79
2019-05-25T12:11:11.084Z,41.72
2019-05-25T12:13:39.715Z,42.93
2019-05-25T12:16:09.467Z,42.68
2019-05-25T12:18:38.988Z,41.54
2019-05-25T12:21:07.704Z,40.83
2019-05-25T12:23:36.364Z,40.42
2019-05-25T12:26:05.427Z,40.00
2019-05-25T12:28:34.066Z,40.24
2019-05-25T12:31:02.763Z,40.95
2019-05-25T12:33:31.411Z,41.29
2019-05-25T12:36:00.126Z,40.72
2019-05-25T12:38:29.068Z,41.69
2019-05-25T12:40:57.711Z,43.21
2019-05-25T12:43:26.335Z,44.43
2019-05-25T12:45:54.959Z,45.96
2019-05-25T12:48:24.181Z,46.62
2019-05-25T12:50:52.826Z,47.17
2019-05-25T12:53:21.471Z,47.40
2019-05-25T12:55:50.457Z,47.73
2019-05-25T12:58:19.088Z,47.56
2019-05-25T13:00:56.144Z,48.48
2019-05-25T13:03:18.528Z,48.50
2019-05-25T13:05:47.154Z,49.12
2019-05-25T13:08:15.785Z,48.33
2019-05-25T13:10:45.674Z,47.65
2019-05-25T13:13:14.599Z,48.53
2019-05-25T13:15:43.232Z,46.16
2019-05-25T13:18:12.259Z,46.42
2019-05-25T13:20:40.917Z,46.28
2019-05-25T13:23:09.677Z,47.00
2019-05-25T13:25:38.363Z,47.15
2019-05-25T13:28:07.020Z,46.66
2019-05-25T13:30:35.770Z,45.63
2019-05-25T13:33:04.423Z,46.26
2019-05-25T13:35:33.087Z,45.01
2019-05-25T13:38:02.055Z,45.46
2019-05-25T13:40:30.898Z,44.92
2019-05-25T13:42:59.550Z,44.86
2019-05-25T13:45:29.356Z,45.16
2019-05-25T13:47:58.095Z,44.90
2019-05-25T13:50:26.799Z,43.13
2019-05-25T13:52:55.452Z,42.20
2019-05-25T13:55:25.019Z,41.27
2019-05-25T13:57:53.723Z,40.95
2019-05-25T14:00:22.378Z,40.82
2019-05-25T14:02:51.012Z,39.67
2019-05-25T14:05:19.742Z,40.36
2019-05-25T14:07:48.665Z,40.07
2019-05-25T14:10:17.394Z,40.22
2019-05-25T14:12:46.111Z,41.45
2019-05-25T14:15:14.834Z,42.11
2019-05-25T14:17:43.512Z,42.48
2019-05-25T14:20:12.385Z,44.24
2019-05-25T14:22:41.105Z,45.15
2019-05-25T14:25:10.185Z,44.63
2019-05-25T14:27:38.869Z,46.95
2019-05-25T14:30:07.612Z,48.19
2019-05-25T14:32:36.343Z,50.33
2019-05-25T14:35:05.191Z,52.08
2019-05-25T14:37:33.829Z,53.34
2019-05-25T14:40:02.487Z,47.83
2019-05-25T14:42:32.140Z,46.15
2019-05-25T14:45:00.793Z,49.16
2019-05-25T14:47:29.448Z,44.96
2019-05-25T14:49:58.522Z,39.63
2019-05-25T14:52:27.296Z,35.03
2019-05-25T14:54:56.016Z,32.40
2019-05-25T14:57:24.669Z,31.15
2019-05-25T14:59:53.306Z,30.10
2019-05-25T15:02:21.975Z,29.18
2019-05-25T15:04:50.678Z,28.44
2019-05-25T15:07:19.336Z,27.39
2019-05-25T15:09:48.112Z,27.02
2019-05-25T15:12:16.826Z,26.75
2019-05-25T15:14:45.500Z,26.45
2019-05-25T15:17:15.138Z,26.11
2019-05-25T15:19:43.780Z,25.48
2019-05-25T15:22:12.599Z,25.18
2019-05-25T15:24:41.304Z,25.05
2019-05-25T15:27:09.982Z,25.08
2019-05-25T15:29:39.498Z,25.17
2019-05-25T15:32:19.424Z,25.02
2019-05-25T15:34:38.564Z,24.95
2019-05-25T15:37:07.612Z,24.91
2019-05-25T15:39:36.299Z,24.96
2019-05-25T15:42:05.059Z,24.85
2019-05-25T15:44:33.731Z,24.77
2019-05-25T15:47:04.834Z,24.86
2019-05-25T15:49:33.841Z,25.06
2019-05-25T15:52:02.737Z,24.99
2019-05-25T15:54:31.539Z,25.10
2019-05-25T15:57:00.360Z,24.96
2019-05-25T15:59:29.068Z,24.90
2019-05-25T16:01:57.769Z,24.50
2019-05-25T16:04:26.432Z,24.33
2019-05-25T16:06:55.151Z,23.84
2019-05-25T16:09:24.246Z,23.89
2019-05-25T16:11:53.003Z,23.77
2019-05-25T16:14:21.757Z,23.29
2019-05-25T16:16:50.461Z,23.24
2019-05-25T16:19:19.181Z,23.69
2019-05-25T16:21:47.940Z,24.26
2019-05-25T16:24:17.326Z,24.92
2019-05-25T16:26:46.805Z,25.10
2019-05-25T16:29:15.578Z,25.20
2019-05-25T16:31:44.247Z,25.45
2019-05-25T16:34:12.900Z,25.55
2019-05-25T16:36:41.586Z,25.11
2019-05-25T16:39:10.420Z,24.63
2019-05-25T16:41:39.132Z,24.34
2019-05-25T16:44:07.937Z,24.46
2019-05-25T16:46:36.588Z,24.35
2019-05-25T16:49:05.408Z,23.69
2019-05-25T16:51:34.053Z,23.49
2019-05-25T16:54:02.719Z,23.35
2019-05-25T16:56:31.396Z,23.32
2019-05-25T16:59:00.031Z,23.56
2019-05-25T17:01:46.473Z,23.72
2019-05-25T17:03:59.056Z,23.70
2019-05-25T17:06:27.783Z,23.69
2019-05-25T17:08:56.817Z,23.80
2019-05-25T17:11:25.575Z,23.90
2019-05-25T17:13:54.228Z,23.94
2019-05-25T17:16:22.890Z,23.92
2019-05-25T17:18:51.545Z,23.79
2019-05-25T17:21:20.580Z,23.72
2019-05-25T17:23:49.408Z,23.67
2019-05-25T17:26:18.226Z,23.66
2019-05-25T17:28:47.972Z,23.47
2019-05-25T17:31:16.670Z,23.39
2019-05-25T17:33:46.658Z,23.39
2019-05-25T17:36:15.568Z,23.28
2019-05-25T17:38:44.540Z,23.31
2019-05-25T17:41:13.568Z,23.24
2019-05-25T17:43:42.216Z,23.28
2019-05-25T17:46:11.250Z,23.28
2019-05-25T17:48:39.915Z,23.31
2019-05-25T17:51:08.656Z,23.38
2019-05-25T17:53:37.405Z,23.09
2019-05-25T17:56:06.253Z,23.02
2019-05-25T17:58:34.961Z,22.87
2019-05-25T18:01:03.622Z,22.68
2019-05-25T18:03:32.284Z,22.74
2019-05-25T18:06:01.029Z,22.88
2019-05-25T18:08:29.775Z,21.74
2019-05-25T18:10:58.417Z,21.30
2019-05-25T18:14:08.428Z,20.98
2019-05-25T18:16:37.177Z,20.96
2019-05-25T18:19:05.007Z,20.88
2019-05-25T18:21:33.027Z,22.26
2019-05-25T18:24:00.873Z,21.73
2019-05-25T18:26:28.731Z,21.13
2019-05-25T18:28:56.539Z,20.77
2019-05-25T18:31:24.325Z,20.47
2019-05-25T18:33:52.412Z,20.30
2019-05-25T18:36:20.280Z,20.29
2019-05-25T18:38:48.138Z,20.26
2019-05-25T18:41:16.040Z,20.24
2019-05-25T18:43:43.864Z,20.20
2019-05-25T18:46:11.639Z,20.18
2019-05-25T18:48:39.418Z,20.13
2019-05-25T18:51:07.261Z,20.09
2019-05-25T18:53:35.042Z,20.08
2019-05-25T18:56:02.907Z,19.99
2019-05-25T18:58:30.808Z,19.85
2019-05-25T19:00:58.680Z,19.73
2019-05-25T19:03:26.498Z,19.63
2019-05-25T19:05:54.800Z,19.52
2019-05-25T19:08:22.590Z,19.42
2019-05-25T19:10:50.484Z,19.25
2019-05-25T19:13:18.272Z,19.13
2019-05-25T19:15:46.256Z,18.98
2019-05-25T19:18:14.545Z,18.89
2019-05-25T19:20:42.459Z,18.76
2019-05-25T19:23:10.675Z,18.68
2019-05-25T19:25:38.447Z,18.54
2019-05-25T19:28:06.231Z,18.42
2019-05-25T19:30:34.082Z,18.31
2019-05-25T19:33:01.839Z,18.19
2019-05-25T19:35:29.619Z,18.10
2019-05-25T19:37:57.464Z,18.07
2019-05-25T19:40:25.229Z,18.01
2019-05-25T19:42:53.000Z,18.00
2019-05-25T19:45:21.005Z,17.96
2019-05-25T19:47:48.784Z,17.91
2019-05-25T19:50:16.625Z,17.88
2019-05-25T19:52:44.462Z,17.85
2019-05-25T19:55:12.327Z,17.82
2019-05-25T19:57:40.100Z,17.79
2019-05-25T20:00:08.049Z,17.71
2019-05-25T20:02:35.889Z,17.63
2019-05-25T20:05:15.603Z,17.56
2019-05-25T20:07:33.265Z,17.53
2019-05-25T20:10:01.100Z,17.48
2019-05-25T20:12:28.994Z,17.43
2019-05-25T20:14:57.029Z,17.34
2019-05-25T20:17:24.876Z,17.27
2019-05-25T20:19:52.660Z,17.18
2019-05-25T20:22:20.699Z,17.09
2019-05-25T20:24:48.464Z,17.02
2019-05-25T20:27:16.665Z,16.95
2019-05-25T20:29:44.474Z,16.90
2019-05-25T20:32:12.251Z,16.84
2019-05-25T20:34:40.032Z,16.76
2019-05-25T20:37:07.819Z,16.73
2019-05-25T20:39:35.583Z,16.72
2019-05-25T20:42:03.475Z,16.72
2019-05-25T20:44:31.627Z,16.71
2019-05-25T20:46:59.383Z,16.68
2019-05-25T20:49:27.189Z,16.69
2019-05-25T20:51:54.969Z,16.71
2019-05-25T20:54:22.739Z,16.73
2019-05-25T20:56:50.519Z,16.79
2019-05-25T20:59:18.542Z,16.80
2019-05-25T21:01:46.353Z,16.86
2019-05-25T21:04:14.442Z,16.83
2019-05-25T21:06:42.226Z,16.85
2019-05-25T21:09:09.978Z,16.82
2019-05-25T21:11:37.776Z,16.77
2019-05-25T21:14:05.557Z,16.79
2019-05-25T21:16:33.402Z,16.76
2019-05-25T21:19:03.123Z,16.73
2019-05-25T21:21:30.792Z,16.69
2019-05-25T21:23:59.522Z,16.69
2019-05-25T21:26:27.322Z,16.63
2019-05-25T21:28:55.175Z,16.63
2019-05-25T21:31:23.989Z,16.57
2019-05-25T21:33:51.987Z,16.53
2019-05-25T21:36:19.772Z,16.45
2019-05-25T21:38:47.541Z,16.35
2019-05-25T21:41:15.327Z,16.15
2019-05-25T21:43:43.105Z,16.04
2019-05-25T21:46:10.868Z,15.93
2019-05-25T21:48:38.662Z,15.97
2019-05-25T21:51:06.443Z,15.87
2019-05-25T21:53:34.215Z,15.93
2019-05-25T21:56:02.117Z,16.01
2019-05-25T21:58:30.219Z,16.07
2019-05-25T22:00:58.120Z,16.02
2019-05-25T22:03:25.990Z,15.90
2019-05-25T22:05:53.752Z,15.83
2019-05-25T22:08:21.818Z,15.68
2019-05-25T22:10:49.611Z,15.70
2019-05-25T22:13:28.019Z,15.71
2019-05-25T22:15:46.933Z,15.77
2019-05-25T22:18:14.742Z,15.80
2019-05-25T22:20:42.504Z,15.75
2019-05-25T22:23:10.356Z,15.77
2019-05-25T22:25:38.148Z,15.69
2019-05-25T22:28:06.250Z,15.64
2019-05-25T22:30:34.030Z,15.60
2019-05-25T22:33:01.885Z,15.97
2019-05-25T22:35:29.997Z,16.13
2019-05-25T22:37:57.772Z,15.87
2019-05-25T22:40:25.588Z,15.78
2019-05-25T22:42:53.731Z,15.73
2019-05-25T22:45:22.578Z,15.72
2019-05-25T22:47:50.351Z,15.69
2019-05-25T22:50:19.495Z,15.65
2019-05-25T22:52:47.333Z,15.64
2019-05-25T22:55:15.199Z,15.65
2019-05-25T22:57:42.967Z,15.61
2019-05-25T23:00:10.998Z,15.60
2019-05-25T23:02:38.819Z,15.54
2019-05-25T23:05:07.412Z,15.50
2019-05-25T23:07:35.390Z,15.51
2019-05-25T23:10:03.255Z,15.50
2019-05-25T23:12:31.331Z,15.46
2019-05-25T23:14:59.111Z,15.46
2019-05-25T23:17:26.885Z,15.31
2019-05-25T23:19:54.665Z,15.17
2019-05-25T23:22:22.432Z,15.17
2019-05-25T23:24:50.515Z,15.15
2019-05-25T23:27:18.306Z,15.04
2019-05-25T23:29:46.082Z,15.02
2019-05-25T23:32:13.886Z,15.00
2019-05-25T23:34:41.724Z,14.99
2019-05-25T23:37:14.697Z,14.94
2019-05-25T23:39:39.374Z,14.87
2019-05-25T23:42:07.230Z,14.84
2019-05-25T23:44:35.012Z,14.75
2019-05-25T23:47:02.779Z,14.69
2019-05-25T23:49:30.570Z,14.63
2019-05-25T23:51:58.344Z,14.58
2019-05-25T23:54:26.151Z,14.49
2019-05-25T23:56:53.940Z,14.46
2019-05-25T23:59:21.866Z,14.39
